Time;durP1;ratioP1;P1;durP2;ratioP2;P2;SDS_P1;SDS_P2;PMS_P1;PMS_P2;Temp;Humidity;BMP_temperature;BMP_pressure;BME280_temperature;BME280_humidity;BME280_pressure;Samples;Min_cycle;Max_cycle;Signal;HPM_P1;HPM_P2
2021/06/15 00:01:10;;;;;;;;;;;;;;;;;;5089312;28;19920;-87
2021/06/15 00:03:35;;;;;;;;;;;;;;;;;;5101379;28;20387;-87
2021/06/15 00:06:01;;;;;;;;;;;;;;;;;;5096013;28;19919;-87
2021/06/15 00:08:27;;;;;;;;;;;;;;;;;;5102318;28;20336;-88
2021/06/15 00:10:53;;;;;;;;;;;;;;;;;;5104116;28;20376;-88
2021/06/15 00:13:19;;;;;;;;;;;;;;;;;;5088941;28;19917;-87
2021/06/15 00:15:48;;;;;;;;;;;;;;;;;;5090733;28;20407;-88
2021/06/15 00:18:14;;;;;;;;;;;;;;;;;;5094034;28;19912;-87
2021/06/15 00:20:39;;;;;;;;;;;;;;;;;;5101139;28;20343;-88
2021/06/15 00:23:05;;;;;;;;;;;;;;;;;;5102324;28;20395;-87
2021/06/15 00:25:31;;;;;;;;;;;;;;;;;;5100300;28;19908;-87
2021/06/15 00:27:57;;;;;;;;;;;;;;;;;;5094331;28;20015;-88
2021/06/15 00:30:23;;;;;;;;;;;;;;;;;;5095591;28;19919;-87
2021/06/15 00:32:50;;;;;;;;;;;;;;;;;;5099208;28;19909;-88
2021/06/15 00:35:16;;;;;;;;;;;;;;;;;;5086180;28;19908;-87
2021/06/15 00:37:42;;;;;;;;;;;;;;;;;;5133963;27;19915;-87
2021/06/15 00:40:08;;;;;;;;;;;;;;;;;;5099103;28;19919;-86
2021/06/15 00:42:34;;;;;;;;;;;;;;;;;;5100203;28;19965;-87
2021/06/15 00:45:00;;;;;;;;;;;;;;;;;;5099856;28;20279;-87
2021/06/15 00:47:26;;;;;;;;;;;;;;;;;;5086340;28;19913;-88
2021/06/15 00:49:52;;;;;;;;;;;;;;;;;;5104176;28;19939;-88
2021/06/15 00:52:18;;;;;;;;;;;;;;;;;;5102361;28;19912;-87
2021/06/15 00:54:43;;;;;;;;;;;;;;;;;;5096452;28;19912;-87
2021/06/15 00:57:09;;;;;;;;;;;;;;;;;;5103355;28;19943;-88
2021/06/15 00:59:35;;;;;;;;;;;;;;;;;;5100094;28;19912;-88
2021/06/15 01:02:01;;;;;;;;;;;;;;;;;;5100970;28;19920;-87
2021/06/15 01:04:27;;;;;;;;;;;;;;;;;;5105534;28;19915;-87
2021/06/15 01:06:53;;;;;;;;;;;;;;;;;;5101899;28;19923;-88
2021/06/15 01:09:19;;;;;;;;;;;;;;;;;;5104556;28;19908;-88
2021/06/15 01:11:50;;;;;;;;;;;;;;;;;;5094179;28;19948;-87
2021/06/15 01:14:16;;;;;;;;;;;;;;;;;;5090811;28;19908;-88
2021/06/15 01:16:42;;;;;;;;;;;;;;;;;;5100793;28;19918;-87
2021/06/15 01:19:08;;;;;;;;;;;;;;;;;;5097224;28;19912;-87
2021/06/15 01:21:34;;;;;;;;;;;;;;;;;;5093103;28;19908;-88
2021/06/15 01:24:00;;;;;;;;;;;;;;;;;;5097149;28;20363;-88
2021/06/15 01:26:26;;;;;;;;;;;;;;;;;;5086390;28;19938;-88
2021/06/15 01:28:51;;;;;;;;;;;;;;;;;;5097022;28;19908;-87
2021/06/15 01:31:17;;;;;;;;;;;;;;;;;;5095149;28;19916;-88
2021/06/15 01:33:43;;;;;;;;;;;;;;;;;;5095775;28;19913;-88
2021/06/15 01:36:09;;;;;;;;;;;;;;;;;;5092249;28;19919;-87
2021/06/15 01:38:35;;;;;;;;;;;;;;;;;;5102874;28;19912;-87
2021/06/15 01:41:01;;;;;;;;;;;;;;;;;;5104934;28;19965;-87
2021/06/15 01:43:27;;;;;;;;;;;;;;;;;;5120234;27;20005;-87
2021/06/15 01:45:53;;;;;;;;;;;;;;;;;;5099128;28;19914;-87
2021/06/15 01:48:20;;;;;;;;;;;;;;;;;;5096329;28;19919;-87
2021/06/15 01:50:46;;;;;;;;;;;;;;;;;;5103589;28;20353;-88
2021/06/15 01:53:12;;;;;;;;;;;;;;;;;;5093486;28;19953;-87
2021/06/15 01:55:38;;;;;;;;;;;;;;;;;;5100135;28;19914;-87
2021/06/15 01:58:04;;;;;;;;;;;;;;;;;;5095484;28;19924;-87
2021/06/15 02:00:29;;;;;;;;;;;;;;;;;;5091642;28;19924;-87
2021/06/15 02:02:55;;;;;;;;;;;;;;;;;;5099877;28;19956;-87
2021/06/15 02:05:21;;;;;;;;;;;;;;;;;;5101791;28;20288;-87
2021/06/15 02:07:47;;;;;;;;;;;;;;;;;;5102692;28;20288;-87
2021/06/15 02:10:13;;;;;;;;;;;;;;;;;;5096495;28;19952;-87
2021/06/15 02:12:42;;;;;;;;;;;;;;;;;;5094460;28;19916;-87
2021/06/15 02:15:08;;;;;;;;;;;;;;;;;;5084893;28;19915;-87
2021/06/15 02:17:34;;;;;;;;;;;;;;;;;;5099698;28;19920;-87
2021/06/15 02:20:00;;;;;;;;;;;;;;;;;;5084482;28;19938;-87
2021/06/15 02:22:26;;;;;;;;;;;;;;;;;;5089633;28;19917;-87
2021/06/15 02:24:52;;;;;;;;;;;;;;;;;;5106231;28;19980;-87
2021/06/15 02:27:17;;;;;;;;;;;;;;;;;;5092847;28;19912;-88
2021/06/15 02:29:43;;;;;;;;;;;;;;;;;;5097549;28;19920;-87
2021/06/15 02:32:09;;;;;;;;;;;;;;;;;;5098246;28;19916;-88
2021/06/15 02:34:35;;;;;;;;;;;;;;;;;;5099948;28;19908;-88
2021/06/15 02:37:01;;;;;;;;;;;;;;;;;;5099299;28;19939;-87
2021/06/15 02:39:27;;;;;;;;;;;;;;;;;;5099127;28;19912;-87
2021/06/15 02:41:53;;;;;;;;;;;;;;;;;;5101427;28;19938;-88
2021/06/15 02:44:19;;;;;;;;;;;;;;;;;;5083436;28;19920;-87
2021/06/15 02:46:45;;;;;;;;;;;;;;;;;;5101922;28;19932;-88
2021/06/15 02:49:10;;;;;;;;;;;;;;;;;;5100238;28;19975;-87
2021/06/15 02:51:36;;;;;;;;;;;;;;;;;;5096038;28;19983;-88
2021/06/15 02:54:02;;;;;;;;;;;;;;;;;;5095480;28;19913;-87
2021/06/15 02:56:28;;;;;;;;;;;;;;;;;;5081274;28;19958;-87
2021/06/15 02:58:54;;;;;;;;;;;;;;;;;;5096032;28;19912;-88
2021/06/15 03:01:20;;;;;;;;;;;;;;;;;;5102008;28;19924;-86
2021/06/15 03:03:46;;;;;;;;;;;;;;;;;;5094461;28;19927;-87
2021/06/15 03:06:12;;;;;;;;;;;;;;;;;;5095178;28;19912;-87
2021/06/15 03:08:38;;;;;;;;;;;;;;;;;;5093129;28;19919;-87
2021/06/15 03:11:04;;;;;;;;;;;;;;;;;;5092403;28;19930;-87
2021/06/15 03:13:29;;;;;;;;;;;;;;;;;;5092634;28;19915;-86
2021/06/15 03:15:56;;;;;;;;;;;;;;;;;;5089882;28;19912;-85
2021/06/15 03:18:22;;;;;;;;;;;;;;;;;;5098591;28;19912;-85
2021/06/15 03:20:47;;;;;;;;;;;;;;;;;;5099345;28;20097;-85
2021/06/15 03:23:13;;;;;;;;;;;;;;;;;;5095451;28;19920;-84
2021/06/15 03:25:41;;;;;;;;;;;;;;;;;;5095962;28;20001;-85
2021/06/15 03:28:07;;;;;;;;;;;;;;;;;;5098552;28;19991;-85
2021/06/15 03:30:33;;;;;;;;;;;;;;;;;;5099475;28;20296;-85
2021/06/15 03:32:59;;;;;;;;;;;;;;;;;;5101108;28;19919;-84
2021/06/15 03:35:25;;;;;;;;;;;;;;;;;;5097762;28;19920;-85
2021/06/15 03:37:51;;;;;;;;;;;;;;;;;;5097502;28;20268;-85
2021/06/15 03:40:17;;;;;;;;;;;;;;;;;;5100081;28;19967;-85
2021/06/15 03:42:43;;;;;;;;;;;;;;;;;;5102812;28;19958;-85
2021/06/15 03:45:09;;;;;;;;;;;;;;;;;;5093175;28;20273;-87
2021/06/15 03:47:35;;;;;;;;;;;;;;;;;;5093333;28;19912;-85
2021/06/15 03:50:01;;;;;;;;;;;;;;;;;;5100932;28;19945;-85
2021/06/15 03:52:26;;;;;;;;;;;;;;;;;;5095346;28;19912;-85
2021/06/15 03:54:52;;;;;;;;;;;;;;;;;;5086082;28;19912;-84
2021/06/15 03:57:18;;;;;;;;;;;;;;;;;;5097185;28;20072;-85
2021/06/15 03:59:44;;;;;;;;;;;;;;;;;;5096972;28;19965;-85
2021/06/15 04:02:10;;;;;;;;;;;;;;;;;;5097151;28;20002;-85
2021/06/15 04:04:36;;;;;;;;;;;;;;;;;;5100954;28;19912;-85
2021/06/15 04:07:02;;;;;;;;;;;;;;;;;;5098985;28;20291;-84
2021/06/15 04:09:28;;;;;;;;;;;;;;;;;;5097562;28;19919;-85
2021/06/15 04:11:54;;;;;;;;;;;;;;;;;;5098296;28;20416;-84
2021/06/15 04:14:20;;;;;;;;;;;;;;;;;;5102330;28;19971;-85
2021/06/15 04:16:45;;;;;;;;;;;;;;;;;;5102993;28;19969;-85
2021/06/15 04:19:11;;;;;;;;;;;;;;;;;;5100591;28;19916;-85
2021/06/15 04:21:37;;;;;;;;;;;;;;;;;;5097523;28;20429;-85
2021/06/15 04:24:03;;;;;;;;;;;;;;;;;;5097591;28;19919;-85
2021/06/15 04:26:29;;;;;;;;;;;;;;;;;;5103191;28;19920;-86
2021/06/15 04:28:55;;;;;;;;;;;;;;;;;;5105537;28;19916;-85
2021/06/15 04:31:21;;;;;;;;;;;;;;;;;;5095057;28;20018;-84
2021/06/15 04:33:47;;;;;;;;;;;;;;;;;;5094462;28;19954;-85
2021/06/15 04:36:13;;;;;;;;;;;;;;;;;;5102193;28;19912;-85
2021/06/15 04:38:39;;;;;;;;;;;;;;;;;;5097719;28;19916;-85
2021/06/15 04:41:05;;;;;;;;;;;;;;;;;;5103311;28;19908;-85
2021/06/15 04:43:31;;;;;;;;;;;;;;;;;;5093083;28;20018;-85
2021/06/15 04:45:57;;;;;;;;;;;;;;;;;;5096915;28;20445;-85
2021/06/15 04:48:22;;;;;;;;;;;;;;;;;;5100337;28;20015;-84
2021/06/15 04:50:48;;;;;;;;;;;;;;;;;;5103721;28;19912;-85
2021/06/15 04:53:14;;;;;;;;;;;;;;;;;;5090127;28;19947;-85
2021/06/15 04:55:40;;;;;;;;;;;;;;;;;;5101392;28;19992;-85
2021/06/15 04:58:06;;;;;;;;;;;;;;;;;;5097744;28;19912;-85
2021/06/15 05:00:32;;;;;;;;;;;;;;;;;;5097947;28;19920;-85
2021/06/15 05:02:58;;;;;;;;;;;;;;;;;;5107975;28;19924;-85
2021/06/15 05:05:24;;;;;;;;;;;;;;;;;;5103146;28;19913;-85
2021/06/15 05:07:49;;;;;;;;;;;;;;;;;;5109007;28;19908;-85
2021/06/15 05:10:15;;;;;;;;;;;;;;;;;;5105861;28;19923;-85
2021/06/15 05:12:41;;;;;;;;;;;;;;;;;;5106275;28;19952;-85
2021/06/15 05:15:07;;;;;;;;;;;;;;;;;;5094756;28;19912;-85
2021/06/15 05:17:33;;;;;;;;;;;;;;;;;;5109520;28;19908;-85
2021/06/15 05:19:59;;;;;;;;;;;;;;;;;;5109678;28;20341;-86
2021/06/15 05:22:25;;;;;;;;;;;;;;;;;;5100696;28;19920;-84
2021/06/15 05:24:51;;;;;;;;;;;;;;;;;;5090580;28;19916;-86
2021/06/15 05:27:17;;;;;;;;;;;;;;;;;;5110665;28;19931;-86
2021/06/15 05:29:43;;;;;;;;;;;;;;;;;;5108558;28;19939;-87
2021/06/15 05:32:10;;;;;;;;;;;;;;;;;;5107406;28;19908;-85
2021/06/15 05:34:36;;;;;;;;;;;;;;;;;;5105272;28;19915;-85
2021/06/15 05:37:02;;;;;;;;;;;;;;;;;;5106657;28;19912;-85
2021/06/15 05:39:27;;;;;;;;;;;;;;;;;;5101106;28;19920;-85
2021/06/15 05:41:53;;;;;;;;;;;;;;;;;;5100798;28;20380;-85
2021/06/15 05:44:19;;;;;;;;;;;;;;;;;;5078806;28;19960;-85
2021/06/15 05:46:45;;;;;;;;;;;;;;;;;;5100769;28;20323;-85
2021/06/15 05:49:11;;;;;;;;;;;;;;;;;;5093566;28;19931;-85
2021/06/15 05:51:37;;;;;;;;;;;;;;;;;;5094072;28;19913;-85
2021/06/15 05:54:03;;;;;;;;;;;;;;;;;;5090974;28;19916;-84
2021/06/15 05:56:29;;;;;;;;;;;;;;;;;;5099506;28;19962;-85
2021/06/15 05:58:55;;;;;;;;;;;;;;;;;;5097968;28;19952;-84
2021/06/15 06:01:21;;;;;;;;;;;;;;;;;;5098196;28;19950;-85
2021/06/15 06:03:56;;;;;;;;;;;;;;;;;;5095819;28;19920;-85
2021/06/15 06:09:06;;;;;;;;;;;;;;;;;;5105809;28;19958;-86
2021/06/15 06:11:32;;;;;;;;;;;;;;;;;;5107619;28;19912;-89
2021/06/15 06:13:58;;;;;;;;;;;;;;;;;;5112643;28;19916;-88
2021/06/15 06:16:24;;;;;;;;;;;;;;;;;;5111289;28;19965;-87
2021/06/15 06:18:50;;;;;;;;;;;;;;;;;;5099567;28;19912;-89
2021/06/15 06:21:16;;;;;;;;;;;;;;;;;;5106029;28;19939;-89
2021/06/15 06:23:42;;;;;;;;;;;;;;;;;;5091707;28;19921;-89
2021/06/15 06:26:08;;;;;;;;;;;;;;;;;;5091517;28;19908;-89
2021/06/15 06:28:34;;;;;;;;;;;;;;;;;;5098634;28;19951;-88
2021/06/15 06:31:00;;;;;;;;;;;;;;;;;;5090857;28;20364;-89
2021/06/15 06:33:26;;;;;;;;;;;;;;;;;;5092514;28;20379;-89
2021/06/15 06:35:52;;;;;;;;;;;;;;;;;;5094486;28;19946;-89
2021/06/15 06:38:17;;;;;;;;;;;;;;;;;;5099344;28;19912;-88
2021/06/15 06:40:43;;;;;;;;;;;;;;;;;;5100696;28;19943;-89
2021/06/15 06:43:10;;;;;;;;;;;;;;;;;;5100760;28;19920;-89
2021/06/15 06:45:36;;;;;;;;;;;;;;;;;;5098718;28;19919;-89
2021/06/15 06:48:01;;;;;;;;;;;;;;;;;;5099501;28;19916;-89
2021/06/15 06:50:27;;;;;;;;;;;;;;;;;;5091154;28;19912;-89
2021/06/15 06:52:53;;;;;;;;;;;;;;;;;;5094357;28;20335;-90
2021/06/15 06:55:20;;;;;;;;;;;;;;;;;;5094992;28;19912;-90
2021/06/15 06:57:47;;;;;;;;;;;;;;;;;;5098859;28;19947;-89
2021/06/15 07:00:13;;;;;;;;;;;;;;;;;;5093733;28;19924;-89
2021/06/15 07:02:38;;;;;;;;;;;;;;;;;;5088913;28;19927;-89
2021/06/15 07:05:04;;;;;;;;;;;;;;;;;;5102548;28;19931;-89
2021/06/15 07:07:30;;;;;;;;;;;;;;;;;;5129949;27;19908;-89
2021/06/15 07:09:56;;;;;;;;;;;;;;;;;;5093981;28;19912;-89
2021/06/15 07:12:22;;;;;;;;;;;;;;;;;;5093075;28;19965;-89
2021/06/15 07:14:48;;;;;;;;;;;;;;;;;;5089964;28;20391;-89
2021/06/15 07:17:14;;;;;;;;;;;;;;;;;;5091369;28;19908;-89
2021/06/15 07:19:40;;;;;;;;;;;;;;;;;;5092955;28;19912;-89
2021/06/15 07:22:07;;;;;;;;;;;;;;;;;;5089581;28;19920;-89
2021/06/15 07:24:32;;;;;;;;;;;;;;;;;;5099649;28;19979;-90
2021/06/15 07:26:58;;;;;;;;;;;;;;;;;;5093596;28;19960;-89
2021/06/15 07:29:24;;;;;;;;;;;;;;;;;;5093543;28;19912;-89
2021/06/15 07:31:50;;;;;;;;;;;;;;;;;;5121074;27;19954;-89
2021/06/15 07:34:16;;;;;;;;;;;;;;;;;;5095676;28;19909;-89
2021/06/15 07:36:42;;;;;;;;;;;;;;;;;;5092300;28;20314;-89
2021/06/15 07:39:08;;;;;;;;;;;;;;;;;;5091099;28;19958;-89
2021/06/15 07:41:34;;;;;;;;;;;;;;;;;;5099611;28;19975;-89
2021/06/15 07:44:00;;;;;;;;;;;;;;;;;;5099908;28;19916;-90
2021/06/15 07:46:26;;;;;;;;;;;;;;;;;;5098466;28;19909;-89
2021/06/15 07:48:53;;;;;;;;;;;;;;;;;;5098315;28;20361;-89
2021/06/15 07:51:19;;;;;;;;;;;;;;;;;;5099275;28;19919;-89
2021/06/15 07:53:45;;;;;;;;;;;;;;;;;;5107419;28;19908;-89
2021/06/15 07:56:11;;;;;;;;;;;;;;;;;;5102333;28;19912;-89
2021/06/15 07:58:37;;;;;;;;;;;;;;;;;;5104267;28;20330;-89
2021/06/15 08:01:03;;;;;;;;;;;;;;;;;;5096335;28;19973;-90
2021/06/15 08:03:28;;;;;;;;;;;;;;;;;;5096610;28;19920;-88
2021/06/15 08:05:54;;;;;;;;;;;;;;;;;;5100760;28;19916;-89
2021/06/15 08:08:20;;;;;;;;;;;;;;;;;;5098413;28;19912;-89
2021/06/15 08:10:46;;;;;;;;;;;;;;;;;;5097013;28;19908;-90
2021/06/15 08:13:12;;;;;;;;;;;;;;;;;;5099399;28;19912;-90
2021/06/15 08:15:38;;;;;;;;;;;;;;;;;;5102912;28;19912;-90
2021/06/15 08:18:04;;;;;;;;;;;;;;;;;;5093969;28;19912;-90
2021/06/15 08:20:30;;;;;;;;;;;;;;;;;;5099822;28;19920;-88
2021/06/15 08:22:56;;;;;;;;;;;;;;;;;;5100328;28;19916;-89
2021/06/15 08:25:21;;;;;;;;;;;;;;;;;;5100979;28;19939;-89
2021/06/15 08:27:47;;;;;;;;;;;;;;;;;;5096559;28;20285;-89
2021/06/15 08:30:13;;;;;;;;;;;;;;;;;;5103825;28;19919;-89
2021/06/15 08:32:39;;;;;;;;;;;;;;;;;;5095632;28;19975;-89
2021/06/15 08:35:05;;;;;;;;;;;;;;;;;;5101821;28;19914;-89
2021/06/15 08:37:31;;;;;;;;;;;;;;;;;;5101504;28;20360;-89
2021/06/15 08:39:57;;;;;;;;;;;;;;;;;;5096356;28;19916;-89
2021/06/15 08:42:23;;;;;;;;;;;;;;;;;;5103258;28;19920;-89
2021/06/15 08:44:49;;;;;;;;;;;;;;;;;;5096459;28;19927;-89
2021/06/15 08:47:16;;;;;;;;;;;;;;;;;;5099293;28;19908;-89
2021/06/15 08:49:42;;;;;;;;;;;;;;;;;;5102130;28;19919;-89
2021/06/15 08:52:08;;;;;;;;;;;;;;;;;;5092566;28;19916;-88
2021/06/15 08:54:34;;;;;;;;;;;;;;;;;;5098125;28;20113;-90
2021/06/15 08:57:00;;;;;;;;;;;;;;;;;;5100384;28;19943;-89
2021/06/15 08:59:29;;;;;;;;;;;;;;;;;;5100248;28;19975;-89
2021/06/15 09:01:55;;;;;;;;;;;;;;;;;;5117854;28;19986;-89
2021/06/15 09:04:21;;;;;;;;;;;;;;;;;;5099010;28;19922;-89
2021/06/15 09:06:47;;;;;;;;;;;;;;;;;;5094357;28;19999;-89
2021/06/15 09:09:13;;;;;;;;;;;;;;;;;;5093828;28;19987;-89
2021/06/15 09:11:39;;;;;;;;;;;;;;;;;;5096811;28;19912;-89
2021/06/15 09:14:05;;;;;;;;;;;;;;;;;;5095415;28;19955;-90
2021/06/15 09:16:36;;;;;;;;;;;;;;;;;;5099586;28;20369;-89
2021/06/15 09:19:01;;;;;;;;;;;;;;;;;;5096084;28;19916;-89
2021/06/15 09:21:27;;;;;;;;;;;;;;;;;;5096914;28;19912;-89
2021/06/15 09:23:53;;;;;;;;;;;;;;;;;;5102077;28;19920;-89
2021/06/15 09:26:19;;;;;;;;;;;;;;;;;;5093558;28;19920;-89
2021/06/15 09:28:45;;;;;;;;;;;;;;;;;;5095062;28;19909;-90
2021/06/15 09:31:11;;;;;;;;;;;;;;;;;;5090759;28;19912;-89
2021/06/15 09:33:37;;;;;;;;;;;;;;;;;;5092670;28;19966;-89
2021/06/15 09:36:03;;;;;;;;;;;;;;;;;;5103557;28;19912;-89
2021/06/15 09:38:29;;;;;;;;;;;;;;;;;;5097493;28;19991;-89
2021/06/15 09:40:55;;;;;;;;;;;;;;;;;;5103680;28;19913;-89
2021/06/15 09:43:21;;;;;;;;;;;;;;;;;;5095054;28;20023;-89
2021/06/15 09:45:47;;;;;;;;;;;;;;;;;;5097254;28;19943;-89
2021/06/15 09:48:13;;;;;;;;;;;;;;;;;;5094261;28;19912;-89
2021/06/15 09:50:39;;;;;;;;;;;;;;;;;;5099579;28;19920;-89
2021/06/15 09:53:04;;;;;;;;;;;;;;;;;;5097708;28;19908;-89
2021/06/15 09:55:30;;;;;;;;;;;;;;;;;;5097992;28;19920;-89
2021/06/15 09:57:56;;;;;;;;;;;;;;;;;;5093757;28;20287;-89
2021/06/15 10:00:22;;;;;;;;;;;;;;;;;;5090655;28;20057;-89
2021/06/15 10:02:48;;;;;;;;;;;;;;;;;;5091817;28;19920;-89
2021/06/15 10:05:14;;;;;;;;;;;;;;;;;;5092260;28;19912;-89
2021/06/15 10:07:40;;;;;;;;;;;;;;;;;;5088823;28;19938;-90
2021/06/15 10:10:06;;;;;;;;;;;;;;;;;;5096219;28;19908;-89
2021/06/15 10:12:31;;;;;;;;;;;;;;;;;;5099963;28;19916;-89
2021/06/15 10:14:59;;;;;;;;;;;;;;;;;;5099529;28;19908;-89
2021/06/15 10:17:25;;;;;;;;;;;;;;;;;;5094217;28;19973;-89
2021/06/15 10:19:51;;;;;;;;;;;;;;;;;;5088790;28;19912;-89
2021/06/15 10:22:17;;;;;;;;;;;;;;;;;;5092488;28;19924;-90
2021/06/15 10:24:43;;;;;;;;;;;;;;;;;;5089885;28;19912;-89
2021/06/15 10:27:09;;;;;;;;;;;;;;;;;;5099087;28;20020;-89
2021/06/15 10:29:35;;;;;;;;;;;;;;;;;;5094349;28;19951;-89
2021/06/15 10:32:01;;;;;;;;;;;;;;;;;;5092827;28;19939;-89
2021/06/15 10:34:26;;;;;;;;;;;;;;;;;;5091185;28;19912;-89
2021/06/15 10:36:52;;;;;;;;;;;;;;;;;;5093794;28;20381;-89
2021/06/15 10:39:18;;;;;;;;;;;;;;;;;;5092323;28;19951;-89
2021/06/15 10:41:44;;;;;;;;;;;;;;;;;;5094143;28;19910;-88
2021/06/15 10:44:11;;;;;;;;;;;;;;;;;;5097676;28;19912;-88
2021/06/15 10:46:37;;;;;;;;;;;;;;;;;;5096901;28;19986;-88
2021/06/15 10:49:03;;;;;;;;;;;;;;;;;;5093070;28;19915;-88
2021/06/15 10:51:29;;;;;;;;;;;;;;;;;;5094800;28;20388;-88
2021/06/15 10:54:02;;;;;;;;;;;;;;;;;;5094328;28;20368;-88
2021/06/15 10:56:31;;;;;;;;;;;;;;;;;;5096099;28;19912;-88
2021/06/15 10:58:57;;;;;;;;;;;;;;;;;;5096226;28;19908;-88
2021/06/15 11:01:24;;;;;;;;;;;;;;;;;;5089790;28;19944;-87
2021/06/15 11:03:50;;;;;;;;;;;;;;;;;;5094574;28;19920;-88
2021/06/15 11:06:16;;;;;;;;;;;;;;;;;;5094250;28;19912;-88
2021/06/15 11:08:42;;;;;;;;;;;;;;;;;;5097365;28;19917;-88
2021/06/15 11:11:07;;;;;;;;;;;;;;;;;;5100238;28;19919;-88
2021/06/15 11:13:33;;;;;;;;;;;;;;;;;;5091087;28;19908;-88
2021/06/15 11:15:59;;;;;;;;;;;;;;;;;;5095003;28;19913;-88
2021/06/15 11:18:25;;;;;;;;;;;;;;;;;;5091657;28;20002;-88
2021/06/15 11:20:51;;;;;;;;;;;;;;;;;;5094231;28;19923;-88
2021/06/15 11:23:17;;;;;;;;;;;;;;;;;;5089890;28;19916;-88
2021/06/15 11:25:43;;;;;;;;;;;;;;;;;;5094832;28;19908;-88
2021/06/15 11:28:09;;;;;;;;;;;;;;;;;;5092774;28;19919;-88
2021/06/15 11:30:35;;;;;;;;;;;;;;;;;;5087122;28;19920;-88
2021/06/15 11:33:04;;;;;;;;;;;;;;;;;;5100256;28;19921;-87
2021/06/15 11:35:30;;;;;;;;;;;;;;;;;;5077012;28;19912;-88
2021/06/15 11:37:55;;;;;;;;;;;;;;;;;;5095048;28;19964;-88
2021/06/15 11:40:21;;;;;;;;;;;;;;;;;;5094940;28;20348;-88
2021/06/15 11:42:48;;;;;;;;;;;;;;;;;;5092585;28;19920;-88
2021/06/15 11:45:14;;;;;;;;;;;;;;;;;;5093069;28;19928;-88
2021/06/15 11:47:40;;;;;;;;;;;;;;;;;;5087332;28;19912;-88
2021/06/15 11:50:06;;;;;;;;;;;;;;;;;;5099840;28;19914;-88
2021/06/15 11:52:32;;;;;;;;;;;;;;;;;;5099603;28;20373;-88
2021/06/15 11:54:58;;;;;;;;;;;;;;;;;;5090135;28;19916;-88
2021/06/15 11:57:23;;;;;;;;;;;;;;;;;;5093599;28;19955;-88
2021/06/15 11:59:49;;;;;;;;;;;;;;;;;;5089349;28;19931;-88
2021/06/15 12:02:15;;;;;;;;;;;;;;;;;;5093108;28;20446;-88
2021/06/15 12:04:41;;;;;;;;;;;;;;;;;;5094872;28;19912;-88
2021/06/15 12:07:07;;;;;;;;;;;;;;;;;;5092267;28;19923;-88
2021/06/15 12:09:33;;;;;;;;;;;;;;;;;;5088986;28;19918;-88
2021/06/15 12:11:59;;;;;;;;;;;;;;;;;;5089036;28;19912;-88
2021/06/15 12:14:25;;;;;;;;;;;;;;;;;;5092813;28;19912;-88
2021/06/15 12:16:50;;;;;;;;;;;;;;;;;;5095028;28;19987;-87
2021/06/15 12:19:16;;;;;;;;;;;;;;;;;;5097225;28;19913;-88
2021/06/15 12:21:43;;;;;;;;;;;;;;;;;;5094107;28;19912;-88
2021/06/15 12:24:11;;;;;;;;;;;;;;;;;;5092081;28;19955;-88
2021/06/15 12:26:40;;;;;;;;;;;;;;;;;;5093688;28;19918;-88
2021/06/15 12:29:06;;;;;;;;;;;;;;;;;;5097917;28;20379;-88
2021/06/15 12:31:32;;;;;;;;;;;;;;;;;;5101102;28;19912;-88
2021/06/15 12:33:58;;;;;;;;;;;;;;;;;;5103231;28;19971;-88
2021/06/15 12:36:24;;;;;;;;;;;;;;;;;;5101345;28;19912;-88
2021/06/15 12:38:50;;;;;;;;;;;;;;;;;;5094930;28;19927;-88
2021/06/15 12:41:16;;;;;;;;;;;;;;;;;;5092491;28;19908;-88
2021/06/15 12:43:41;;;;;;;;;;;;;;;;;;5095092;28;20019;-88
2021/06/15 12:46:07;;;;;;;;;;;;;;;;;;5093822;28;19912;-88
2021/06/15 12:48:33;;;;;;;;;;;;;;;;;;5093320;28;20264;-88
2021/06/15 12:50:59;;;;;;;;;;;;;;;;;;5092246;28;19942;-88
2021/06/15 12:53:25;;;;;;;;;;;;;;;;;;5099146;28;19912;-88
2021/06/15 12:55:51;;;;;;;;;;;;;;;;;;5104339;28;19956;-88
2021/06/15 12:58:17;;;;;;;;;;;;;;;;;;5093747;28;19908;-87
2021/06/15 13:00:43;;;;;;;;;;;;;;;;;;5096437;28;19927;-87
2021/06/15 13:03:09;;;;;;;;;;;;;;;;;;5098402;28;20020;-87
2021/06/15 13:05:35;;;;;;;;;;;;;;;;;;5098383;28;19912;-87
2021/06/15 13:08:01;;;;;;;;;;;;;;;;;;5128364;27;20321;-89
2021/06/15 13:10:26;;;;;;;;;;;;;;;;;;5095796;28;19908;-87
2021/06/15 13:12:52;;;;;;;;;;;;;;;;;;5091832;28;19957;-88
2021/06/15 13:15:20;;;;;;;;;;;;;;;;;;5087847;28;19912;-88
2021/06/15 13:17:46;;;;;;;;;;;;;;;;;;5095304;28;19944;-87
2021/06/15 13:20:12;;;;;;;;;;;;;;;;;;5100049;28;20359;-87
2021/06/15 13:22:41;;;;;;;;;;;;;;;;;;5097749;28;19920;-88
2021/06/15 13:25:06;;;;;;;;;;;;;;;;;;5091300;28;19912;-88
2021/06/15 13:27:40;;;;;;;;;;;;;;;;;;5096933;28;19956;-88
2021/06/15 13:30:05;;;;;;;;;;;;;;;;;;5094159;28;19965;-87
2021/06/15 13:32:31;;;;;;;;;;;;;;;;;;5104226;28;19909;-88
2021/06/15 13:34:57;;;;;;;;;;;;;;;;;;5109209;28;19908;-87
2021/06/15 13:37:23;;;;;;;;;;;;;;;;;;5109786;28;19916;-88
2021/06/15 13:39:50;;;;;;;;;;;;;;;;;;5107679;28;19916;-87
2021/06/15 13:42:16;;;;;;;;;;;;;;;;;;5097520;28;19943;-88
2021/06/15 13:44:42;;;;;;;;;;;;;;;;;;5094519;28;19917;-87
2021/06/15 13:47:08;;;;;;;;;;;;;;;;;;5099850;28;19908;-87
2021/06/15 13:49:33;;;;;;;;;;;;;;;;;;5100340;28;20280;-88
2021/06/15 13:51:59;;;;;;;;;;;;;;;;;;5100522;28;19912;-88
2021/06/15 13:54:25;;;;;;;;;;;;;;;;;;5092254;28;19912;-88
2021/06/15 13:56:51;;;;;;;;;;;;;;;;;;5084715;28;20343;-88
2021/06/15 13:59:17;;;;;;;;;;;;;;;;;;5093609;28;19908;-88
2021/06/15 14:01:43;;;;;;;;;;;;;;;;;;5095603;28;19957;-88
2021/06/15 14:04:09;;;;;;;;;;;;;;;;;;5101652;28;19946;-88
2021/06/15 14:06:35;;;;;;;;;;;;;;;;;;5097756;28;19916;-88
2021/06/15 14:09:01;;;;;;;;;;;;;;;;;;5094017;28;19912;-87
2021/06/15 14:11:27;;;;;;;;;;;;;;;;;;5083291;28;19948;-88
2021/06/15 14:13:53;;;;;;;;;;;;;;;;;;5101008;28;19915;-88
2021/06/15 14:16:19;;;;;;;;;;;;;;;;;;5100828;28;19912;-88
2021/06/15 14:18:44;;;;;;;;;;;;;;;;;;5086505;28;19920;-88
2021/06/15 14:21:10;;;;;;;;;;;;;;;;;;5093818;28;19912;-87
2021/06/15 14:23:37;;;;;;;;;;;;;;;;;;5093595;28;19964;-88
2021/06/15 14:26:03;;;;;;;;;;;;;;;;;;5093417;28;19919;-88
2021/06/15 14:28:29;;;;;;;;;;;;;;;;;;5094431;28;19908;-87
2021/06/15 14:30:56;;;;;;;;;;;;;;;;;;5100886;28;20221;-88
2021/06/15 14:33:22;;;;;;;;;;;;;;;;;;5091142;28;19947;-88
2021/06/15 14:35:48;;;;;;;;;;;;;;;;;;5091772;28;19967;-87
2021/06/15 14:38:14;;;;;;;;;;;;;;;;;;5102244;28;19991;-87
2021/06/15 14:40:40;;;;;;;;;;;;;;;;;;5101547;28;19930;-87
2021/06/15 14:43:06;;;;;;;;;;;;;;;;;;5098758;28;19920;-87
2021/06/15 14:45:32;;;;;;;;;;;;;;;;;;5090904;28;19916;-87
2021/06/15 14:47:58;;;;;;;;;;;;;;;;;;5092763;28;20292;-87
2021/06/15 14:50:24;;;;;;;;;;;;;;;;;;5091256;28;19972;-87
2021/06/15 14:52:50;;;;;;;;;;;;;;;;;;5093422;28;19980;-88
2021/06/15 14:55:15;;;;;;;;;;;;;;;;;;5095478;28;19912;-88
2021/06/15 14:57:41;;;;;;;;;;;;;;;;;;5093556;28;19919;-88
2021/06/15 15:00:07;;;;;;;;;;;;;;;;;;5092829;28;20257;-88
2021/06/15 15:02:33;;;;;;;;;;;;;;;;;;5094613;28;19921;-88
2021/06/15 15:04:59;;;;;;;;;;;;;;;;;;5080760;28;19959;-87
2021/06/15 15:07:25;;;;;;;;;;;;;;;;;;5095947;28;19908;-87
2021/06/15 15:09:51;;;;;;;;;;;;;;;;;;5095117;28;19912;-88
2021/06/15 15:12:17;;;;;;;;;;;;;;;;;;5094898;28;19920;-84
2021/06/15 15:14:43;;;;;;;;;;;;;;;;;;5094043;28;19912;-85
2021/06/15 15:17:12;;;;;;;;;;;;;;;;;;5097473;28;19908;-86
2021/06/15 15:19:38;;;;;;;;;;;;;;;;;;5091680;28;19912;-86
2021/06/15 15:22:04;;;;;;;;;;;;;;;;;;5085212;28;19912;-86
2021/06/15 15:24:30;;;;;;;;;;;;;;;;;;5093701;28;20359;-86
2021/06/15 15:26:57;;;;;;;;;;;;;;;;;;5092508;28;19912;-86
2021/06/15 15:29:23;;;;;;;;;;;;;;;;;;5099603;28;19912;-86
2021/06/15 15:31:49;;;;;;;;;;;;;;;;;;5093373;28;19953;-85
2021/06/15 15:34:15;;;;;;;;;;;;;;;;;;5092934;28;20138;-83
2021/06/15 15:36:41;;;;;;;;;;;;;;;;;;5096535;28;19919;-84
2021/06/15 15:39:07;;;;;;;;;;;;;;;;;;5094238;28;20003;-84
2021/06/15 15:41:32;;;;;;;;;;;;;;;;;;5092112;28;19963;-83
2021/06/15 15:43:59;;;;;;;;;;;;;;;;;;5090958;28;19930;-83
2021/06/15 15:46:25;;;;;;;;;;;;;;;;;;5090769;28;20413;-83
2021/06/15 15:48:54;;;;;;;;;;;;;;;;;;5088206;28;19908;-84
2021/06/15 15:51:20;;;;;;;;;;;;;;;;;;5093605;28;19912;-83
2021/06/15 15:53:46;;;;;;;;;;;;;;;;;;5095472;28;19912;-83
2021/06/15 15:56:12;;;;;;;;;;;;;;;;;;5099271;28;19916;-83
2021/06/15 15:58:38;;;;;;;;;;;;;;;;;;5100333;28;19912;-83
2021/06/15 16:01:03;;;;;;;;;;;;;;;;;;5091575;28;19927;-83
2021/06/15 16:03:29;;;;;;;;;;;;;;;;;;5089190;28;19920;-83
2021/06/15 16:05:55;;;;;;;;;;;;;;;;;;5101254;28;20015;-84
2021/06/15 16:08:21;;;;;;;;;;;;;;;;;;5101001;28;19912;-83
2021/06/15 16:10:47;;;;;;;;;;;;;;;;;;5101812;28;19916;-83
2021/06/15 16:13:13;;;;;;;;;;;;;;;;;;5096276;28;19919;-84
2021/06/15 16:15:39;;;;;;;;;;;;;;;;;;5095121;28;20478;-82
2021/06/15 16:18:04;;;;;;;;;;;;;;;;;;5103878;28;19916;-83
2021/06/15 16:20:30;;;;;;;;;;;;;;;;;;5094286;28;19912;-83
2021/06/15 16:22:56;;;;;;;;;;;;;;;;;;5101728;28;19916;-84
2021/06/15 16:25:22;;;;;;;;;;;;;;;;;;5103711;28;19915;-84
2021/06/15 16:27:48;;;;;;;;;;;;;;;;;;5096871;28;20369;-84
2021/06/15 16:30:14;;;;;;;;;;;;;;;;;;5095771;28;19912;-84
2021/06/15 16:32:40;;;;;;;;;;;;;;;;;;5100438;28;19948;-84
2021/06/15 16:35:06;;;;;;;;;;;;;;;;;;5101284;28;19931;-85
2021/06/15 16:37:32;;;;;;;;;;;;;;;;;;5106833;28;19971;-84
2021/06/15 16:39:58;;;;;;;;;;;;;;;;;;5105780;28;19908;-86